createdAt,value
2023-01-19T00:02:21.558Z,96.20
2023-01-19T00:06:07.765Z,96.30
2023-01-19T00:09:49.547Z,96.30
2023-01-19T00:13:31.357Z,96.20
2023-01-19T00:17:13.109Z,96.10
2023-01-19T00:20:54.795Z,96.20
2023-01-19T00:24:36.582Z,96.20
2023-01-19T00:28:19.383Z,96.20
2023-01-19T00:32:02.713Z,96.20
2023-01-19T00:35:44.458Z,96.20
2023-01-19T00:39:26.189Z,96.20
2023-01-19T00:43:07.972Z,96.20
2023-01-19T00:46:49.719Z,96.20
2023-01-19T00:50:32.742Z,96.20
2023-01-19T00:54:14.675Z,96.20
2023-01-19T00:57:57.152Z,96.20
2023-01-19T01:01:45.132Z,96.20
2023-01-19T01:05:27.663Z,96.20
2023-01-19T01:09:11.976Z,96.10
2023-01-19T01:12:57.423Z,96.00
2023-01-19T01:16:40.478Z,96.40
2023-01-19T01:20:27.946Z,96.10
2023-01-19T01:24:10.556Z,96.20
2023-01-19T01:27:53.154Z,96.10
2023-01-19T01:31:35.196Z,96.10
2023-01-19T01:35:17.251Z,96.10
2023-01-19T01:39:00.124Z,96.10
2023-01-19T01:42:42.595Z,96.10
2023-01-19T01:46:25.831Z,96.10
2023-01-19T01:50:12.774Z,96.10
2023-01-19T01:54:16.759Z,96.20
2023-01-19T01:58:02.807Z,96.30
2023-01-19T02:02:03.128Z,96.10
2023-01-19T02:05:46.394Z,96.00
2023-01-19T02:09:51.356Z,95.90
2023-01-19T02:13:39.942Z,95.90
2023-01-19T02:17:22.153Z,95.80
2023-01-19T02:21:23.950Z,95.80
2023-01-19T02:25:06.803Z,95.80
2023-01-19T02:29:00.470Z,95.90
2023-01-19T02:32:42.460Z,95.90
2023-01-19T02:36:29.008Z,96.30
2023-01-19T02:40:14.039Z,95.90
2023-01-19T02:43:58.580Z,96.00
2023-01-19T02:47:44.386Z,96.10
2023-01-19T02:51:27.631Z,96.10
2023-01-19T02:55:22.253Z,96.20
2023-01-19T02:59:23.276Z,96.30
2023-01-19T03:03:31.087Z,96.30
2023-01-19T03:07:51.921Z,96.30
2023-01-19T03:11:38.324Z,96.40
2023-01-19T03:15:29.505Z,96.20
2023-01-19T03:19:27.295Z,96.20
2023-01-19T03:23:12.717Z,96.20
2023-01-19T03:27:03.839Z,96.20
2023-01-19T03:30:52.220Z,96.20
2023-01-19T03:34:41.048Z,96.20
2023-01-19T03:38:26.199Z,96.20
2023-01-19T03:42:14.468Z,96.20
2023-01-19T03:45:57.458Z,96.30
2023-01-19T03:49:41.063Z,96.20
2023-01-19T03:53:22.924Z,96.30
2023-01-19T03:57:04.822Z,96.30
2023-01-19T04:00:46.530Z,96.30
2023-01-19T04:04:28.433Z,96.20
2023-01-19T04:08:11.102Z,96.20
2023-01-19T04:11:52.996Z,96.10
2023-01-19T04:15:34.763Z,96.10
2023-01-19T04:19:16.471Z,96.10
2023-01-19T04:23:02.447Z,96.10
2023-01-19T04:26:44.420Z,96.10
2023-01-19T04:30:27.477Z,96.10
2023-01-19T04:34:09.228Z,96.10
2023-01-19T04:37:51.252Z,96.10
2023-01-19T04:41:33.075Z,96.20
2023-01-19T04:45:15.237Z,96.20
2023-01-19T04:48:56.974Z,96.20
2023-01-19T04:52:38.763Z,96.30
2023-01-19T04:56:20.459Z,96.30
2023-01-19T05:00:02.939Z,96.30
2023-01-19T05:03:44.715Z,96.30
2023-01-19T05:07:26.786Z,96.30
2023-01-19T05:11:08.539Z,96.30
2023-01-19T05:14:50.387Z,96.40
2023-01-19T05:18:36.013Z,96.50
2023-01-19T05:22:17.838Z,96.90
2023-01-19T05:26:01.939Z,96.60
2023-01-19T05:29:43.953Z,96.70
2023-01-19T05:33:26.270Z,96.70
2023-01-19T05:37:08.038Z,96.70
2023-01-19T05:40:49.764Z,96.70
2023-01-19T05:44:31.515Z,96.80
2023-01-19T05:48:13.277Z,97.20
2023-01-19T05:51:55.052Z,96.80
2023-01-19T05:55:36.781Z,96.80
2023-01-19T05:59:24.040Z,96.90
2023-01-19T06:03:06.575Z,96.90
2023-01-19T06:06:51.592Z,96.90
2023-01-19T06:10:33.473Z,96.90
2023-01-19T06:14:15.475Z,96.80
2023-01-19T06:17:57.215Z,96.90
2023-01-19T06:21:38.962Z,96.90
2023-01-19T06:25:20.670Z,96.90
2023-01-19T06:29:02.410Z,96.90
2023-01-19T06:32:44.281Z,96.90
2023-01-19T06:36:26.313Z,96.90
2023-01-19T06:40:08.753Z,97.00
2023-01-19T06:43:50.539Z,97.00
2023-01-19T06:47:34.365Z,97.00
2023-01-19T06:51:16.121Z,97.10
2023-01-19T06:54:58.546Z,97.10
2023-01-19T06:58:42.119Z,97.20
2023-01-19T07:02:26.294Z,97.20
2023-01-19T07:06:08.931Z,97.20
2023-01-19T07:09:51.525Z,97.20
2023-01-19T07:13:37.823Z,97.30
2023-01-19T07:17:20.092Z,97.30
2023-01-19T07:21:01.849Z,97.30
2023-01-19T07:24:43.633Z,97.30
2023-01-19T07:28:25.592Z,97.30
2023-01-19T07:32:07.543Z,97.30
2023-01-19T07:35:50.001Z,97.30
2023-01-19T07:39:32.035Z,97.30
2023-01-19T07:43:14.728Z,97.40
2023-01-19T07:46:56.707Z,97.40
2023-01-19T07:50:38.496Z,97.50
2023-01-19T07:54:21.693Z,97.50
2023-01-19T07:58:07.444Z,97.50
2023-01-19T08:01:49.372Z,97.50
2023-01-19T08:05:32.789Z,97.50
2023-01-19T08:09:14.552Z,97.50
2023-01-19T08:12:57.728Z,97.50
2023-01-19T08:16:39.582Z,97.50
2023-01-19T08:20:23.245Z,97.50
2023-01-19T08:24:05.349Z,97.50
2023-01-19T08:27:47.125Z,97.40
2023-01-19T08:31:29.070Z,97.30
2023-01-19T08:35:10.953Z,97.30
2023-01-19T08:38:53.175Z,97.20
2023-01-19T08:42:34.896Z,97.20
2023-01-19T08:46:17.471Z,97.20
2023-01-19T08:49:59.397Z,97.20
2023-01-19T08:53:42.839Z,97.20
2023-01-19T08:57:24.555Z,97.30
2023-01-19T09:01:07.998Z,97.50
2023-01-19T09:04:49.850Z,97.20
2023-01-19T09:08:31.738Z,97.40
2023-01-19T09:12:13.536Z,97.10
2023-01-19T09:15:55.417Z,97.00
2023-01-19T09:19:37.196Z,97.00
2023-01-19T09:23:20.502Z,97.00
2023-01-19T09:27:02.426Z,97.10
2023-01-19T09:30:45.045Z,97.10
2023-01-19T09:34:26.861Z,97.10
2023-01-19T09:38:10.227Z,97.20
2023-01-19T09:42:05.933Z,97.30
2023-01-19T09:46:10.754Z,97.50
2023-01-19T09:50:23.361Z,97.70
2023-01-19T09:54:13.506Z,97.80
2023-01-19T09:57:55.405Z,97.50
2023-01-19T10:02:14.924Z,97.70
2023-01-19T10:06:03.711Z,98.10
2023-01-19T10:10:21.487Z,98.10
2023-01-19T10:14:11.261Z,98.40
2023-01-19T10:17:53.041Z,98.30
2023-01-19T10:21:41.046Z,98.40
2023-01-19T10:25:24.415Z,98.50
2023-01-19T10:29:13.369Z,98.30
2023-01-19T10:32:55.371Z,98.40
2023-01-19T10:36:39.811Z,98.40
2023-01-19T10:40:34.852Z,98.50
2023-01-19T10:44:34.966Z,98.60
2023-01-19T10:48:16.883Z,98.80
2023-01-19T10:52:00.001Z,98.60
2023-01-19T10:55:41.769Z,98.70
2023-01-19T10:59:50.651Z,98.80
2023-01-19T11:03:34.149Z,99.30
2023-01-19T11:07:34.546Z,98.90
2023-01-19T11:11:16.435Z,99.00
2023-01-19T11:14:58.367Z,99.00
2023-01-19T11:18:41.348Z,99.10
2023-01-19T11:22:28.206Z,99.20
2023-01-19T11:26:50.041Z,99.30
2023-01-19T11:30:32.215Z,99.60
2023-01-19T11:34:34.479Z,99.40
2023-01-19T11:38:19.621Z,99.80
2023-01-19T11:42:03.849Z,99.60
2023-01-19T11:45:46.256Z,99.70
2023-01-19T11:49:55.643Z,99.80
2023-01-19T11:53:37.859Z,99.90
2023-01-19T11:57:20.140Z,99.80
2023-01-19T12:01:04.733Z,99.80
2023-01-19T12:04:48.097Z,99.80
2023-01-19T12:09:11.339Z,99.80
2023-01-19T12:12:53.811Z,99.70
2023-01-19T12:16:37.878Z,99.70
2023-01-19T12:20:34.171Z,99.70
2023-01-19T12:24:36.483Z,99.40
2023-01-19T12:28:22.610Z,99.10
2023-01-19T12:32:18.383Z,99.30
2023-01-19T12:36:09.993Z,98.90
2023-01-19T12:39:51.758Z,98.90
2023-01-19T12:43:33.465Z,99.20
2023-01-19T12:47:15.189Z,99.10
2023-01-19T12:50:56.919Z,99.10
2023-01-19T12:54:43.602Z,99.00
2023-01-19T12:58:26.073Z,98.80
2023-01-19T13:02:40.342Z,98.80
2023-01-19T13:06:48.246Z,97.60
2023-01-19T13:11:10.151Z,97.70
2023-01-19T13:15:38.203Z,97.70
2023-01-19T13:19:36.979Z,97.60
2023-01-19T13:23:46.387Z,97.90
2023-01-19T13:27:28.578Z,98.30
2023-01-19T13:31:11.884Z,98.30
2023-01-19T13:34:59.325Z,98.30
2023-01-19T13:38:42.735Z,98.10
2023-01-19T13:42:41.698Z,98.20
2023-01-19T13:46:26.293Z,97.20
2023-01-19T13:50:31.188Z,98.10
2023-01-19T13:54:17.727Z,96.50
2023-01-19T13:57:59.527Z,97.70
2023-01-19T14:01:44.410Z,97.70
2023-01-19T14:05:58.657Z,97.80
2023-01-19T14:09:56.776Z,96.30
2023-01-19T14:13:44.793Z,96.90
2023-01-19T14:17:32.275Z,96.90
2023-01-19T14:21:15.830Z,96.80
2023-01-19T14:25:17.429Z,97.20
2023-01-19T14:29:06.858Z,95.00
2023-01-19T14:32:50.319Z,97.20
2023-01-19T14:36:41.935Z,97.10
2023-01-19T14:40:27.323Z,94.70
2023-01-19T14:44:19.859Z,96.70
2023-01-19T14:48:06.136Z,96.10
2023-01-19T14:51:48.944Z,96.20
2023-01-19T14:55:44.556Z,96.30
2023-01-19T14:59:26.345Z,95.70
2023-01-19T15:03:09.965Z,96.30
2023-01-19T15:06:51.978Z,96.30
2023-01-19T15:10:35.826Z,96.30
2023-01-19T15:14:20.356Z,96.10
2023-01-19T15:18:04.376Z,96.20
2023-01-19T15:21:46.894Z,96.30
2023-01-19T15:25:30.406Z,96.30
2023-01-19T15:29:26.398Z,96.10
2023-01-19T15:33:21.353Z,95.00
2023-01-19T15:37:03.153Z,95.50
2023-01-19T15:40:47.994Z,96.20
2023-01-19T15:44:32.825Z,96.10
2023-01-19T15:48:14.881Z,96.30
2023-01-19T15:51:56.742Z,96.10
2023-01-19T15:55:38.481Z,96.10
2023-01-19T15:59:20.179Z,96.10
2023-01-19T16:03:03.443Z,96.10
2023-01-19T16:06:45.277Z,96.10
2023-01-19T16:10:27.027Z,95.90
2023-01-19T16:14:08.762Z,96.00
2023-01-19T16:17:50.607Z,96.00
2023-01-19T16:21:34.890Z,96.10
2023-01-19T16:25:16.645Z,95.90
2023-01-19T16:29:00.795Z,96.00
2023-01-19T16:32:42.728Z,95.90
2023-01-19T16:36:29.955Z,96.30
2023-01-19T16:40:12.338Z,95.70
2023-01-19T16:43:55.577Z,96.00
2023-01-19T16:47:37.283Z,96.00
2023-01-19T16:51:19.821Z,95.90
2023-01-19T16:55:01.547Z,96.00
2023-01-19T16:58:45.843Z,96.00
2023-01-19T17:02:27.569Z,96.20
2023-01-19T17:09:58.544Z,96.30
2023-01-19T17:13:40.338Z,96.20
2023-01-19T17:17:22.044Z,96.10
2023-01-19T17:21:06.097Z,95.90
2023-01-19T17:24:47.890Z,95.80
2023-01-19T17:28:29.979Z,95.80
2023-01-19T17:32:11.741Z,95.70
2023-01-19T17:35:53.425Z,95.70
2023-01-19T17:39:35.143Z,95.60
2023-01-19T17:43:16.840Z,95.60
2023-01-19T17:47:00.035Z,95.50
2023-01-19T17:50:42.016Z,95.50
2023-01-19T17:54:23.954Z,95.50
2023-01-19T17:58:05.658Z,95.70
2023-01-19T18:01:47.824Z,95.40
2023-01-19T18:05:29.622Z,95.40
2023-01-19T18:09:12.210Z,95.40
2023-01-19T18:12:54.238Z,95.30
2023-01-19T18:16:36.135Z,95.30
2023-01-19T18:20:17.937Z,95.30
2023-01-19T18:24:02.352Z,95.30
2023-01-19T18:27:44.106Z,95.30
2023-01-19T18:31:26.849Z,95.30
2023-01-19T18:35:08.950Z,95.30
2023-01-19T18:38:50.752Z,95.20
2023-01-19T18:42:34.018Z,95.20
2023-01-19T18:46:16.350Z,95.20
2023-01-19T18:49:58.199Z,95.30
2023-01-19T18:53:40.500Z,95.20
2023-01-19T18:57:22.217Z,95.20
2023-01-19T19:01:25.508Z,95.20
2023-01-19T19:05:07.740Z,94.90
2023-01-19T19:08:54.007Z,95.10
2023-01-19T19:12:35.756Z,95.10
2023-01-19T19:16:18.000Z,95.10
2023-01-19T19:19:59.726Z,95.10
2023-01-19T19:23:41.442Z,95.20
2023-01-19T19:27:23.149Z,95.20
2023-01-19T19:31:11.585Z,95.20
2023-01-19T19:34:53.448Z,95.10
2023-01-19T19:38:36.819Z,95.20
2023-01-19T19:42:18.582Z,95.20
2023-01-19T19:46:05.419Z,95.30
2023-01-19T19:49:47.265Z,95.30
2023-01-19T19:53:28.983Z,95.20
2023-01-19T19:57:10.710Z,95.10
2023-01-19T20:00:52.565Z,95.10
2023-01-19T20:04:34.395Z,95.00
2023-01-19T20:08:16.145Z,95.00
2023-01-19T20:11:57.860Z,95.20
2023-01-19T20:15:39.639Z,95.00
2023-01-19T20:19:21.416Z,95.00
2023-01-19T20:23:03.256Z,95.00
2023-01-19T20:26:51.550Z,94.90
2023-01-19T20:30:33.272Z,94.90
2023-01-19T20:34:17.968Z,94.90
2023-01-19T20:37:59.983Z,94.80
2023-01-19T20:41:45.607Z,94.80
2023-01-19T20:45:27.499Z,94.70
2023-01-19T20:49:09.361Z,94.70
2023-01-19T20:52:51.080Z,94.60
2023-01-19T20:56:32.831Z,94.50
2023-01-19T21:00:14.887Z,94.50
2023-01-19T21:03:56.616Z,94.50
2023-01-19T21:07:38.427Z,94.50
2023-01-19T21:11:21.342Z,94.50
2023-01-19T21:15:03.254Z,94.40
2023-01-19T21:18:44.946Z,94.30
2023-01-19T21:22:26.643Z,94.20
2023-01-19T21:26:08.399Z,94.20
2023-01-19T21:29:50.172Z,94.10
2023-01-19T21:33:32.124Z,94.10
2023-01-19T21:37:13.833Z,94.30
2023-01-19T21:40:56.935Z,94.30
2023-01-19T21:44:38.773Z,94.40
2023-01-19T21:48:20.612Z,94.40
2023-01-19T21:52:02.339Z,94.50
2023-01-19T21:55:45.582Z,94.60
2023-01-19T21:59:27.588Z,94.70
2023-01-19T22:03:09.436Z,94.70
2023-01-19T22:06:51.237Z,94.70
2023-01-19T22:10:37.303Z,94.80
2023-01-19T22:14:19.155Z,94.80
2023-01-19T22:18:00.910Z,94.60
2023-01-19T22:21:42.644Z,94.60
2023-01-19T22:25:27.747Z,94.50
2023-01-19T22:29:11.307Z,94.30
2023-01-19T22:32:53.157Z,94.30
2023-01-19T22:36:34.924Z,94.70
2023-01-19T22:40:17.124Z,94.30
2023-01-19T22:44:01.228Z,94.40
2023-01-19T22:47:43.058Z,94.40
2023-01-19T22:51:25.817Z,94.50
2023-01-19T22:55:07.919Z,94.60
2023-01-19T22:58:50.301Z,94.50
2023-01-19T23:02:32.126Z,94.50
2023-01-19T23:06:23.024Z,94.50
2023-01-19T23:10:05.156Z,94.50
2023-01-19T23:13:47.437Z,94.50
2023-01-19T23:17:29.136Z,94.60
2023-01-19T23:21:16.576Z,94.70
2023-01-19T23:24:58.280Z,94.70
2023-01-19T23:28:40.661Z,94.70
2023-01-19T23:32:22.535Z,94.60
2023-01-19T23:36:04.469Z,94.50
2023-01-19T23:39:46.258Z,94.50
2023-01-19T23:43:27.955Z,94.60
2023-01-19T23:47:09.773Z,94.60
2023-01-19T23:50:51.491Z,94.60
2023-01-19T23:54:33.291Z,94.60
2023-01-19T23:58:14.988Z,94.60
